createdAt,value
2023-10-29T00:00:53.854Z,99142.50
2023-10-29T00:03:20.480Z,99116.66
2023-10-29T00:05:47.096Z,99143.63
2023-10-29T00:08:13.702Z,99136.28
2023-10-29T00:10:40.206Z,99127.34
2023-10-29T00:13:07.023Z,99116.53
2023-10-29T00:15:33.759Z,99113.09
2023-10-29T00:18:00.932Z,99113.44
2023-10-29T00:20:27.554Z,99127.19
2023-10-29T00:22:54.092Z,99123.72
2023-10-29T00:25:21.677Z,99109.53
2023-10-29T00:27:48.232Z,99092.41
2023-10-29T00:30:14.787Z,99100.09
2023-10-29T00:32:41.481Z,99092.41
2023-10-29T00:35:08.778Z,99092.97
2023-10-29T00:37:35.266Z,99091.38
2023-10-29T00:40:02.384Z,99096.41
2023-10-29T00:42:28.951Z,99084.81
2023-10-29T00:44:55.473Z,99079.31
2023-10-29T00:47:22.192Z,99065.34
2023-10-29T00:49:49.547Z,99056.84
2023-10-29T00:52:16.539Z,99052.84
2023-10-29T00:54:43.280Z,99048.38
2023-10-29T00:57:09.874Z,99042.06
2023-10-29T00:59:37.489Z,99052.38
2023-10-29T01:02:04.778Z,99039.97
2023-10-29T01:04:31.593Z,99034.22
2023-10-29T01:06:59.098Z,99020.50
2023-10-29T01:09:25.721Z,99041.34
2023-10-29T01:11:52.329Z,99042.72
2023-10-29T01:14:18.928Z,99037.44
2023-10-29T01:16:45.470Z,99025.28
2023-10-29T01:19:12.082Z,99020.00
2023-10-29T01:21:38.886Z,99021.03
2023-10-29T01:24:05.863Z,99024.97
2023-10-29T01:26:32.867Z,99018.06
2023-10-29T01:28:59.422Z,99010.94
2023-10-29T01:31:25.909Z,99017.59
2023-10-29T01:33:52.374Z,98999.13
2023-10-29T01:36:18.893Z,98998.91
2023-10-29T01:38:45.423Z,99000.97
2023-10-29T01:41:12.059Z,98995.38
2023-10-29T01:43:39.859Z,98996.19
2023-10-29T01:46:06.396Z,98989.31
2023-10-29T01:48:32.890Z,98985.88
2023-10-29T01:51:04.075Z,98997.22
2023-10-29T01:53:31.044Z,98998.28
2023-10-29T01:55:57.608Z,98991.94
2023-10-29T01:58:24.200Z,99000.19
2023-10-29T02:00:56.269Z,98991.22
2023-10-29T02:03:23.032Z,98991.00
2023-10-29T02:05:49.801Z,98982.03
2023-10-29T02:08:16.412Z,98979.97
2023-10-29T02:10:42.897Z,98972.84
2023-10-29T02:13:09.401Z,98967.88
2023-10-29T02:15:36.019Z,98959.75
2023-10-29T02:18:02.675Z,98943.66
2023-10-29T02:20:29.326Z,98946.88
2023-10-29T02:22:55.861Z,98954.31
2023-10-29T02:25:22.434Z,98952.22
2023-10-29T02:27:48.945Z,98957.47
2023-10-29T02:30:15.493Z,98971.97
2023-10-29T02:32:42.051Z,98974.06
2023-10-29T02:35:11.759Z,98966.69
2023-10-29T02:37:38.290Z,98958.22
2023-10-29T02:40:05.303Z,98962.94
2023-10-29T02:42:31.816Z,98954.22
2023-10-29T02:44:59.972Z,98950.25
2023-10-29T02:47:27.080Z,98951.75
2023-10-29T02:49:53.671Z,98942.69
2023-10-29T02:52:20.183Z,98947.16
2023-10-29T02:54:47.017Z,98947.16
2023-10-29T02:57:14.896Z,98945.94
2023-10-29T02:59:41.455Z,98942.25
2023-10-29T03:02:08.055Z,98952.56
2023-10-29T03:04:34.926Z,98956.31
2023-10-29T03:07:01.467Z,98975.09
2023-10-29T03:09:28.166Z,98949.56
2023-10-29T03:11:54.858Z,98951.47
2023-10-29T03:14:21.388Z,98950.44
2023-10-29T03:16:47.951Z,98955.25
2023-10-29T03:19:14.493Z,98959.00
2023-10-29T03:21:41.038Z,98953.47
2023-10-29T03:24:07.971Z,98949.22
2023-10-29T03:26:34.640Z,98951.56
2023-10-29T03:29:01.439Z,98949.97
2023-10-29T03:31:27.975Z,98957.06
2023-10-29T03:33:54.477Z,98951.00
2023-10-29T03:36:21.000Z,98958.41
2023-10-29T03:38:47.461Z,98965.59
2023-10-29T03:41:21.435Z,98963.84
2023-10-29T03:43:49.153Z,98969.97
2023-10-29T03:46:16.037Z,98969.19
2023-10-29T03:48:45.991Z,98966.78
2023-10-29T03:51:14.008Z,98964.69
2023-10-29T03:53:41.042Z,98966.31
2023-10-29T03:56:07.888Z,98972.38
2023-10-29T03:58:34.484Z,98980.31
2023-10-29T04:01:02.623Z,98967.91
2023-10-29T04:03:30.077Z,98966.84
2023-10-29T04:05:57.334Z,98973.97
2023-10-29T04:08:23.850Z,98976.38
2023-10-29T04:10:50.409Z,98981.41
2023-10-29T04:13:16.968Z,98979.88
2023-10-29T04:15:43.500Z,98983.31
2023-10-29T04:18:10.035Z,98991.50
2023-10-29T04:20:36.645Z,98996.78
2023-10-29T04:23:03.132Z,98991.50
2023-10-29T04:25:29.704Z,98993.81
2023-10-29T04:27:56.417Z,98992.44
2023-10-29T04:30:22.994Z,98997.72
2023-10-29T04:32:49.613Z,98998.22
2023-10-29T04:35:16.210Z,98988.13
2023-10-29T04:37:42.836Z,98988.88
2023-10-29T04:40:09.891Z,98990.19
2023-10-29T04:42:36.536Z,98994.88
2023-10-29T04:45:03.179Z,98983.28
2023-10-29T04:47:29.877Z,98992.25
2023-10-29T04:49:56.489Z,98996.16
2023-10-29T04:52:23.131Z,98991.69
2023-10-29T04:54:49.966Z,98992.50
2023-10-29T04:57:18.545Z,98989.34
2023-10-29T04:59:45.066Z,98997.84
2023-10-29T05:02:11.665Z,98997.59
2023-10-29T05:04:38.162Z,99011.03
2023-10-29T05:07:04.723Z,99006.63
2023-10-29T05:09:31.362Z,99014.31
2023-10-29T05:11:57.923Z,99011.91
2023-10-29T05:14:24.442Z,98998.88
2023-10-29T05:16:51.037Z,98998.50
2023-10-29T05:19:17.522Z,99009.53
2023-10-29T05:21:44.718Z,99015.31
2023-10-29T05:24:11.563Z,99024.75
2023-10-29T05:26:38.410Z,99019.94
2023-10-29T05:29:05.686Z,99026.19
2023-10-29T05:31:33.265Z,99017.94
2023-10-29T05:34:00.365Z,99016.81
2023-10-29T05:36:26.929Z,99022.06
2023-10-29T05:38:53.468Z,99030.00
2023-10-29T05:41:20.521Z,99029.41
2023-10-29T05:43:47.042Z,99044.44
2023-10-29T05:46:14.529Z,99037.34
2023-10-29T05:48:41.681Z,99048.13
2023-10-29T05:51:13.653Z,99040.22
2023-10-29T05:53:40.712Z,99049.41
2023-10-29T05:56:07.620Z,99052.28
2023-10-29T05:58:35.197Z,99053.81
2023-10-29T06:01:02.403Z,99050.38
2023-10-29T06:03:29.207Z,99058.03
2023-10-29T06:05:56.918Z,99063.63
2023-10-29T06:08:23.837Z,99056.53
2023-10-29T06:10:51.456Z,99081.63
2023-10-29T06:13:18.160Z,99086.91
2023-10-29T06:15:44.704Z,99097.47
2023-10-29T06:18:11.446Z,99100.41
2023-10-29T06:20:44.209Z,99107.06
2023-10-29T06:23:10.959Z,99106.03
2023-10-29T06:25:38.390Z,99107.06
2023-10-29T06:28:05.228Z,99098.81
2023-10-29T06:30:31.884Z,99115.34
2023-10-29T06:33:04.542Z,99126.63
2023-10-29T06:35:31.248Z,99136.03
2023-10-29T06:37:57.951Z,99124.38
2023-10-29T06:40:25.861Z,99129.84
2023-10-29T06:42:52.553Z,99141.91
2023-10-29T06:45:19.186Z,99149.03
2023-10-29T06:47:45.836Z,99146.84
2023-10-29T06:50:12.499Z,99144.22
2023-10-29T06:52:39.018Z,99151.59
2023-10-29T06:55:06.158Z,99152.63
2023-10-29T06:57:32.972Z,99158.69
2023-10-29T07:00:00.961Z,99144.13
2023-10-29T07:02:28.201Z,99163.63
2023-10-29T07:04:54.919Z,99165.22
2023-10-29T07:07:22.751Z,99179.22
2023-10-29T07:09:49.348Z,99169.72
2023-10-29T07:12:17.195Z,99172.81
2023-10-29T07:14:44.556Z,99175.44
2023-10-29T07:17:11.089Z,99195.72
2023-10-29T07:19:37.620Z,99195.94
2023-10-29T07:22:04.055Z,99210.75
2023-10-29T07:24:30.665Z,99215.44
2023-10-29T07:26:57.401Z,99224.75
2023-10-29T07:29:24.165Z,99226.56
2023-10-29T07:31:50.748Z,99228.97
2023-10-29T07:34:17.881Z,99232.66
2023-10-29T07:36:45.520Z,99227.84
2023-10-29T07:39:12.939Z,99235.97
2023-10-29T07:41:39.692Z,99237.78
2023-10-29T07:44:06.732Z,99244.91
2023-10-29T07:46:33.627Z,99242.50
2023-10-29T07:49:00.137Z,99255.44
2023-10-29T07:51:26.668Z,99250.41
2023-10-29T07:53:53.454Z,99266.00
2023-10-29T07:56:22.102Z,99262.56
2023-10-29T07:58:48.939Z,99272.91
2023-10-29T08:01:17.406Z,99271.59
2023-10-29T08:03:46.498Z,99278.84
2023-10-29T08:06:14.337Z,99283.28
2023-10-29T08:08:41.554Z,99276.84
2023-10-29T08:11:08.387Z,99278.44
2023-10-29T08:13:34.884Z,99296.53
2023-10-29T08:16:03.669Z,99298.38
2023-10-29T08:18:30.508Z,99295.50
2023-10-29T08:20:57.216Z,99308.06
2023-10-29T08:23:23.863Z,99303.78
2023-10-29T08:25:50.654Z,99309.50
2023-10-29T08:28:17.320Z,99309.91
2023-10-29T08:30:44.001Z,99306.34
2023-10-29T08:33:10.643Z,99313.47
2023-10-29T08:35:37.322Z,99316.91
2023-10-29T08:38:03.859Z,99325.69
2023-10-29T08:40:30.371Z,99325.31
2023-10-29T08:42:56.919Z,99321.66
2023-10-29T08:45:38.513Z,99330.28
2023-10-29T08:48:07.957Z,99347.88
2023-10-29T08:50:34.705Z,99338.09
2023-10-29T08:53:01.335Z,99353.63
2023-10-29T08:55:27.913Z,99344.09
2023-10-29T08:57:54.429Z,99351.69
2023-10-29T09:00:21.153Z,99367.28
2023-10-29T09:02:48.459Z,99370.03
2023-10-29T09:05:16.288Z,99370.50
2023-10-29T09:07:43.018Z,99365.69
2023-10-29T09:10:10.040Z,99379.31
2023-10-29T09:12:38.194Z,99378.94
2023-10-29T09:15:05.402Z,99380.56
2023-10-29T09:17:32.034Z,99382.72
2023-10-29T09:19:58.555Z,99404.97
2023-10-29T09:22:25.327Z,99401.94
2023-10-29T09:24:51.988Z,99414.69
2023-10-29T09:27:18.546Z,99399.97
2023-10-29T09:29:45.285Z,99422.47
2023-10-29T09:32:14.939Z,99417.75
2023-10-29T09:34:41.939Z,99422.22
2023-10-29T09:37:08.458Z,99415.09
2023-10-29T09:39:35.201Z,99409.59
2023-10-29T09:42:09.867Z,99407.75
2023-10-29T09:44:41.600Z,99410.63
2023-10-29T09:47:16.248Z,99425.22
2023-10-29T09:49:43.031Z,99422.88
2023-10-29T09:52:10.426Z,99431.72
2023-10-29T09:54:39.948Z,99429.22
2023-10-29T09:57:07.556Z,99422.22
2023-10-29T09:59:36.344Z,99423.56
2023-10-29T10:02:04.368Z,99424.13
2023-10-29T10:04:31.223Z,99424.69
2023-10-29T10:07:00.603Z,99427.09
2023-10-29T10:09:27.452Z,99434.09
2023-10-29T10:12:04.606Z,99418.00
2023-10-29T10:14:31.328Z,99421.28
2023-10-29T10:17:14.096Z,99432.50
2023-10-29T10:19:42.084Z,99430.75
2023-10-29T10:22:08.960Z,99402.03
2023-10-29T10:24:46.907Z,99404.94
2023-10-29T10:27:15.279Z,99391.63
2023-10-29T10:29:42.109Z,99396.44
2023-10-29T10:32:09.935Z,99405.47
2023-10-29T10:34:38.947Z,99407.66
2023-10-29T10:37:06.689Z,99403.03
2023-10-29T10:39:34.191Z,99431.72
2023-10-29T10:42:05.092Z,99429.72
2023-10-29T10:44:32.143Z,99421.56
2023-10-29T10:47:01.422Z,99426.28
2023-10-29T10:49:32.245Z,99433.09
2023-10-29T10:52:02.244Z,99423.78
2023-10-29T10:54:30.648Z,99420.75
2023-10-29T10:56:58.034Z,99422.50
2023-10-29T10:59:24.776Z,99435.16
2023-10-29T11:01:52.146Z,99446.16
2023-10-29T11:04:20.473Z,99459.03
2023-10-29T11:06:48.069Z,99447.22
2023-10-29T11:09:15.895Z,99463.38
2023-10-29T11:11:54.989Z,99467.94
2023-10-29T11:14:22.487Z,99465.03
2023-10-29T11:17:00.843Z,99470.63
2023-10-29T11:19:48.079Z,99465.59
2023-10-29T11:22:22.929Z,99461.59
2023-10-29T11:25:12.386Z,99452.31
2023-10-29T11:27:40.392Z,99453.91
2023-10-29T11:30:23.353Z,99447.00
2023-10-29T11:33:08.890Z,99439.56
2023-10-29T11:35:35.620Z,99427.13
2023-10-29T11:38:22.792Z,99420.22
2023-10-29T11:40:50.989Z,99418.38
2023-10-29T11:43:18.607Z,99406.75
2023-10-29T11:45:52.868Z,99398.00
2023-10-29T11:48:21.782Z,99400.88
2023-10-29T11:51:14.737Z,99390.28
2023-10-29T11:53:41.261Z,99377.63
2023-10-29T11:56:11.370Z,99379.47
2023-10-29T11:58:38.482Z,99364.88
2023-10-29T12:01:05.638Z,99358.00
2023-10-29T12:03:32.646Z,99351.91
2023-10-29T12:05:59.516Z,99349.19
2023-10-29T12:08:31.336Z,99346.00
2023-10-29T12:10:59.719Z,99347.28
2023-10-29T12:13:26.717Z,99351.28
2023-10-29T12:15:58.702Z,99368.41
2023-10-29T12:18:26.417Z,99387.19
2023-10-29T12:21:06.728Z,99389.97
2023-10-29T12:23:33.941Z,99389.97
2023-10-29T12:26:05.915Z,99398.91
2023-10-29T12:28:37.679Z,99382.47
2023-10-29T12:31:07.159Z,99382.16
2023-10-29T12:33:36.182Z,99382.59
2023-10-29T12:36:09.519Z,99386.44
2023-10-29T12:38:39.338Z,99375.72
2023-10-29T12:41:09.635Z,99362.66
2023-10-29T12:44:05.280Z,99352.50
2023-10-29T12:46:31.798Z,99334.16
2023-10-29T12:49:09.379Z,99341.28
2023-10-29T12:51:42.946Z,99352.19
2023-10-29T12:54:13.608Z,99354.91
2023-10-29T12:56:59.496Z,99354.66
2023-10-29T12:59:34.162Z,99348.06
2023-10-29T13:02:06.943Z,99343.09
2023-10-29T13:04:35.491Z,99345.25
2023-10-29T13:07:08.708Z,99350.06
2023-10-29T13:09:37.661Z,99356.16
2023-10-29T13:12:08.607Z,99341.06
2023-10-29T13:14:37.021Z,99343.97
2023-10-29T13:17:04.626Z,99338.69
2023-10-29T13:19:31.486Z,99346.84
2023-10-29T13:21:58.091Z,99339.41
2023-10-29T13:24:25.405Z,99337.25
2023-10-29T13:26:53.707Z,99332.47
2023-10-29T13:29:21.971Z,99339.03
2023-10-29T13:31:48.509Z,99333.69
2023-10-29T13:34:17.065Z,99314.53
2023-10-29T13:36:44.190Z,99306.28
2023-10-29T13:39:15.277Z,99307.81
2023-10-29T13:41:45.384Z,99301.41
2023-10-29T13:44:16.988Z,99294.97
2023-10-29T13:46:44.417Z,99314.53
2023-10-29T13:49:11.687Z,99322.25
2023-10-29T13:51:38.997Z,99325.91
2023-10-29T13:54:05.870Z,99332.47
2023-10-29T13:56:32.518Z,99329.25
2023-10-29T13:58:59.044Z,99341.13
2023-10-29T14:01:25.782Z,99344.50
2023-10-29T14:03:53.505Z,99353.16
2023-10-29T14:06:20.331Z,99338.25
2023-10-29T14:08:47.097Z,99338.66
2023-10-29T14:11:18.131Z,99346.50
2023-10-29T14:13:46.636Z,99373.06
2023-10-29T14:16:13.784Z,99336.56
2023-10-29T14:18:41.663Z,99244.50
2023-10-29T14:21:08.280Z,99205.66
2023-10-29T14:23:36.079Z,99228.75
2023-10-29T14:26:02.935Z,99247.25
2023-10-29T14:28:30.045Z,99248.03
2023-10-29T14:30:57.241Z,99245.31
2023-10-29T14:33:24.155Z,99262.47
2023-10-29T14:35:58.384Z,99268.81
2023-10-29T14:38:25.426Z,99274.38
2023-10-29T14:40:54.325Z,99268.56
2023-10-29T14:43:27.102Z,99264.81
2023-10-29T14:45:55.640Z,99273.22
2023-10-29T14:48:22.215Z,99270.41
2023-10-29T14:50:49.444Z,99271.63
2023-10-29T14:53:16.220Z,99278.16
2023-10-29T14:55:49.113Z,99273.78
2023-10-29T14:58:16.345Z,99284.53
2023-10-29T15:00:44.020Z,99278.09
2023-10-29T15:03:11.276Z,99279.72
2023-10-29T15:05:38.678Z,99277.06
2023-10-29T15:08:05.533Z,99276.50
2023-10-29T15:10:32.088Z,99283.63
2023-10-29T15:12:58.649Z,99275.69
2023-10-29T15:15:29.798Z,99288.66
2023-10-29T15:17:57.281Z,99289.56
2023-10-29T15:20:23.992Z,99288.03
2023-10-29T15:22:50.860Z,99282.19
2023-10-29T15:25:17.593Z,99285.84
2023-10-29T15:27:44.219Z,99281.31
2023-10-29T15:30:12.047Z,99275.13
2023-10-29T15:32:39.126Z,99282.16
2023-10-29T15:35:06.455Z,99263.94
2023-10-29T15:37:33.014Z,99265.75
2023-10-29T15:40:00.281Z,99262.56
2023-10-29T15:42:27.423Z,99272.47
2023-10-29T15:44:54.460Z,99280.47
2023-10-29T15:47:23.997Z,99286.59
2023-10-29T15:49:53.629Z,99294.31
2023-10-29T15:52:20.738Z,99278.28
2023-10-29T15:54:48.000Z,99276.81
2023-10-29T15:57:15.785Z,99289.09
2023-10-29T15:59:42.798Z,99279.94
2023-10-29T16:02:09.471Z,99283.28
2023-10-29T16:04:36.143Z,99282.81
2023-10-29T16:07:04.264Z,99288.56
2023-10-29T16:09:30.977Z,99282.13
2023-10-29T16:11:58.090Z,99284.22
2023-10-29T16:14:25.455Z,99286.75
2023-10-29T16:16:52.097Z,99282.50
2023-10-29T16:19:18.687Z,99280.09
2023-10-29T16:21:46.741Z,99284.78
2023-10-29T16:24:14.495Z,99286.88
2023-10-29T16:26:41.387Z,99282.84
2023-10-29T16:29:07.958Z,99284.09
2023-10-29T16:31:34.575Z,99277.25
2023-10-29T16:34:01.296Z,99288.81
2023-10-29T16:36:27.847Z,99279.31
2023-10-29T16:38:54.472Z,99282.97
2023-10-29T16:41:20.979Z,99296.16
2023-10-29T16:43:51.019Z,99300.63
2023-10-29T16:46:18.453Z,99302.47
2023-10-29T16:48:46.702Z,99308.53
2023-10-29T16:51:13.370Z,99305.44
2023-10-29T16:53:40.094Z,99308.97
2023-10-29T16:56:09.462Z,99304.63
2023-10-29T16:58:40.343Z,99296.47
2023-10-29T17:01:07.194Z,99300.28
2023-10-29T17:03:34.094Z,99298.19
2023-10-29T17:06:04.040Z,99304.84
2023-10-29T17:08:30.559Z,99317.59
2023-10-29T17:10:59.358Z,99319.50
2023-10-29T17:13:26.572Z,99322.94
2023-10-29T17:16:03.578Z,99334.63
2023-10-29T17:18:30.782Z,99387.28
2023-10-29T17:21:00.208Z,99359.63
2023-10-29T17:23:27.312Z,99371.78
2023-10-29T17:25:54.004Z,99386.56
2023-10-29T17:28:20.596Z,99390.00
2023-10-29T17:30:47.092Z,99376.25
2023-10-29T17:33:14.468Z,99367.75
2023-10-29T17:35:41.628Z,99382.44
2023-10-29T17:38:08.375Z,99379.47
2023-10-29T17:40:34.958Z,99374.44
2023-10-29T17:43:01.532Z,99375.69
2023-10-29T17:45:28.623Z,99372.72
2023-10-29T17:47:58.079Z,99384.16
2023-10-29T17:50:24.889Z,99392.56
2023-10-29T17:52:51.426Z,99391.19
2023-10-29T17:55:17.982Z,99398.50
2023-10-29T17:57:44.606Z,99407.44
2023-10-29T18:00:15.452Z,99421.44
2023-10-29T18:02:43.077Z,99419.69
2023-10-29T18:05:13.861Z,99419.59
2023-10-29T18:07:40.665Z,99427.94
2023-10-29T18:10:07.640Z,99426.69
2023-10-29T18:12:34.097Z,99437.00
2023-10-29T18:15:00.814Z,99445.25
2023-10-29T18:17:27.546Z,99449.28
2023-10-29T18:19:54.343Z,99449.28
2023-10-29T18:22:22.161Z,99451.69
2023-10-29T18:24:49.091Z,99460.63
2023-10-29T18:27:15.981Z,99466.94
2023-10-29T18:29:42.633Z,99470.63
2023-10-29T18:32:09.100Z,99474.50
2023-10-29T18:34:35.799Z,99468.88
2023-10-29T18:37:02.579Z,99480.31
2023-10-29T18:39:29.693Z,99485.66
2023-10-29T18:41:57.306Z,99485.56
2023-10-29T18:44:31.000Z,99494.94
2023-10-29T18:46:59.390Z,99496.63
2023-10-29T18:49:28.494Z,99503.00
2023-10-29T18:51:57.015Z,99501.06
2023-10-29T18:54:24.305Z,99512.81
2023-10-29T18:56:50.931Z,99513.88
2023-10-29T18:59:17.902Z,99516.94
2023-10-29T19:01:44.442Z,99518.63
2023-10-29T19:04:11.918Z,99521.13
2023-10-29T19:06:38.940Z,99530.28
2023-10-29T19:09:05.594Z,99539.41
2023-10-29T19:11:34.857Z,99535.38
2023-10-29T19:14:02.209Z,99541.09
2023-10-29T19:16:29.021Z,99539.91
2023-10-29T19:18:56.704Z,99550.91
2023-10-29T19:21:23.402Z,99561.00
2023-10-29T19:23:50.141Z,99564.66
2023-10-29T19:26:16.696Z,99562.25
2023-10-29T19:28:43.270Z,99566.91
2023-10-29T19:31:24.174Z,99558.00
2023-10-29T19:33:53.655Z,99577.44
2023-10-29T19:36:20.246Z,99573.22
2023-10-29T19:38:46.875Z,99579.88
2023-10-29T19:41:13.621Z,99580.88
2023-10-29T19:43:40.203Z,99595.88
2023-10-29T19:46:06.844Z,99589.00
2023-10-29T19:48:33.583Z,99598.75
2023-10-29T19:51:01.518Z,99605.00
2023-10-29T19:53:30.600Z,99611.09
2023-10-29T19:55:57.684Z,99606.41
2023-10-29T19:58:24.992Z,99618.78
2023-10-29T20:00:52.080Z,99626.44
2023-10-29T20:03:19.459Z,99633.78
2023-10-29T20:05:46.348Z,99639.22
2023-10-29T20:08:13.240Z,99617.38
2023-10-29T20:10:41.385Z,99647.13
2023-10-29T20:13:08.185Z,99663.97
2023-10-29T20:15:35.432Z,99667.19
2023-10-29T20:18:02.930Z,99668.19
2023-10-29T20:20:30.366Z,99673.47
2023-10-29T20:22:59.983Z,99672.88
2023-10-29T20:25:28.610Z,99685.44
2023-10-29T20:27:55.977Z,99677.56
2023-10-29T20:30:26.943Z,99683.41
2023-10-29T20:32:53.874Z,99680.00
2023-10-29T20:35:23.201Z,99679.75
2023-10-29T20:37:49.825Z,99680.19
2023-10-29T20:40:20.915Z,99685.69
2023-10-29T20:42:47.487Z,99682.66
2023-10-29T20:45:14.245Z,99680.47
2023-10-29T20:47:40.900Z,99682.72
2023-10-29T20:50:09.969Z,99693.66
2023-10-29T20:52:36.602Z,99693.09
2023-10-29T20:55:04.223Z,99700.75
2023-10-29T20:57:31.776Z,99708.88
2023-10-29T20:59:58.925Z,99711.72
2023-10-29T21:02:25.819Z,99708.69
2023-10-29T21:04:55.394Z,99713.16
2023-10-29T21:07:21.985Z,99712.34
2023-10-29T21:09:48.956Z,99718.41
2023-10-29T21:12:15.731Z,99716.00
2023-10-29T21:14:42.272Z,99720.66
2023-10-29T21:17:08.900Z,99733.22
2023-10-29T21:19:36.493Z,99739.06
2023-10-29T21:22:03.205Z,99749.59
2023-10-29T21:24:29.828Z,99746.38
2023-10-29T21:26:56.975Z,99754.47
2023-10-29T21:29:28.107Z,99751.44
2023-10-29T21:31:54.740Z,99756.13
2023-10-29T21:34:21.850Z,99758.97
2023-10-29T21:36:48.376Z,99773.16
2023-10-29T21:39:15.058Z,99768.91
2023-10-29T21:41:41.857Z,99768.91
2023-10-29T21:44:08.434Z,99770.75
2023-10-29T21:46:35.743Z,99770.75
2023-10-29T21:49:02.458Z,99771.16
2023-10-29T21:51:29.040Z,99760.44
2023-10-29T21:53:55.602Z,99772.41
2023-10-29T21:56:22.242Z,99783.56
2023-10-29T21:58:48.776Z,99780.13
2023-10-29T22:01:16.421Z,99782.97
2023-10-29T22:03:43.886Z,99780.94
2023-10-29T22:06:12.743Z,99790.88
2023-10-29T22:08:39.367Z,99799.75
2023-10-29T22:11:10.674Z,99792.06
2023-10-29T22:13:41.396Z,99805.22
2023-10-29T22:16:11.151Z,99806.25
2023-10-29T22:18:38.824Z,99810.09
2023-10-29T22:21:11.331Z,99808.69
2023-10-29T22:23:39.087Z,99812.75
2023-10-29T22:26:07.217Z,99820.06
2023-10-29T22:28:34.300Z,99826.13
2023-10-29T22:31:02.472Z,99832.59
2023-10-29T22:33:30.430Z,99827.53
2023-10-29T22:36:01.900Z,99829.56
2023-10-29T22:38:28.875Z,99826.13
2023-10-29T22:41:09.592Z,99826.31
2023-10-29T22:43:36.426Z,99818.66
2023-10-29T22:46:03.710Z,99823.50
2023-10-29T22:48:31.016Z,99825.34
2023-10-29T22:50:57.939Z,99821.28
2023-10-29T22:53:24.428Z,99833.03
2023-10-29T22:55:51.037Z,99839.69
2023-10-29T22:58:17.726Z,99847.19
2023-10-29T23:00:44.564Z,99853.69
2023-10-29T23:03:11.436Z,99849.63
2023-10-29T23:05:38.526Z,99850.25
2023-10-29T23:08:05.088Z,99860.56
2023-10-29T23:10:31.896Z,99858.13
2023-10-29T23:12:59.000Z,99865.63
2023-10-29T23:15:25.858Z,99867.03
2023-10-29T23:17:52.602Z,99865.03
2023-10-29T23:20:22.246Z,99874.13
2023-10-29T23:22:48.733Z,99867.25
2023-10-29T23:25:15.349Z,99873.91
2023-10-29T23:27:42.058Z,99870.88
2023-10-29T23:30:09.296Z,99867.06
2023-10-29T23:32:35.999Z,99863.00
2023-10-29T23:35:04.472Z,99862.59
2023-10-29T23:37:31.559Z,99856.72
2023-10-29T23:39:59.120Z,99858.53
2023-10-29T23:42:25.672Z,99867.22
2023-10-29T23:44:52.190Z,99871.88
2023-10-29T23:47:18.738Z,99870.25
2023-10-29T23:49:45.356Z,99860.75
2023-10-29T23:52:11.915Z,99866.44
2023-10-29T23:54:38.710Z,99861.34
2023-10-29T23:57:05.330Z,99867.63
2023-10-29T23:59:31.849Z,99862.97
